EDW394 LSZH-LIBD
Flight info
| Callsign | EDW394 |
|---|---|
| Flight time | 1h 22m |
| Altitude | 37000 |
| Route | DEGES2X DEGES Y170 ARGAX DCT RESIA DCT LOBSI DCT KEGED DCT ARSOB DCT AFCAM DCT BEFHE DCT EKMUR EKMUR1F |
| Aircraft | A320/M-SDE3FGHIRWY/LB1 |
Departure
| Time | 2026-05-01 13:35 |
|---|---|
| Airport | Zürich Airport (LSZH) |
Arrival
| Time | 2026-05-01 14:57 |
|---|---|
| Airport | Bari Karol Wojtyła International Airport (LIBD) |
| Time | Latitude | Longitude | Altitude | Speed | Heading |
|---|---|---|---|---|---|
| 2026-05-01 13:10 | 47.45432 | 8.55634 | 1407 ft | 0 kts | 186° |
| 2026-05-01 13:28 | 47.45438 | 8.55635 | 1406 ft | 4 kts | 187° |
| 2026-05-01 13:28 | 47.45464 | 8.55642 | 1393 ft | 4 kts | 185° |
| 2026-05-01 13:29 | 47.45512 | 8.55620 | 1414 ft | 4 kts | 126° |
| 2026-05-01 13:29 | 47.45519 | 8.55595 | 1408 ft | 0 kts | 96° |
| 2026-05-01 13:31 | 47.45628 | 8.55880 | 1410 ft | 11 kts | 63° |
| 2026-05-01 13:32 | 47.45618 | 8.56146 | 1417 ft | 14 kts | 95° |
| 2026-05-01 13:33 | 47.45576 | 8.56748 | 1419 ft | 19 kts | 95° |
| 2026-05-01 13:33 | 47.45611 | 8.57020 | 1424 ft | 11 kts | 7° |
| 2026-05-01 13:34 | 47.45666 | 8.56953 | 1424 ft | 0 kts | 277° |
| 2026-05-01 13:34 | 47.45708 | 8.56388 | 1417 ft | 91 kts | 275° |
| 2026-05-01 13:35 | 47.45937 | 8.53544 | 1876 ft | 153 kts | 278° |
| 2026-05-01 13:35 | 47.46051 | 8.51940 | 2519 ft | 155 kts | 276° |
| 2026-05-01 13:35 | 47.46249 | 8.48466 | 3352 ft | 187 kts | 264° |
| 2026-05-01 13:36 | 47.45733 | 8.46693 | 3852 ft | 192 kts | 237° |
| 2026-05-01 13:36 | 47.45044 | 8.44958 | 4373 ft | 201 kts | 242° |
| 2026-05-01 13:36 | 47.42765 | 8.42394 | 5143 ft | 237 kts | 183° |
| 2026-05-01 13:37 | 47.41097 | 8.43060 | 5459 ft | 262 kts | 144° |
| 2026-05-01 13:37 | 47.39969 | 8.45178 | 6039 ft | 275 kts | 109° |
| 2026-05-01 13:37 | 47.39626 | 8.48012 | 6865 ft | 280 kts | 92° |
| 2026-05-01 13:37 | 47.39674 | 8.50856 | 7685 ft | 282 kts | 86° |
| 2026-05-01 13:38 | 47.40055 | 8.56681 | 9397 ft | 285 kts | 86° |
| 2026-05-01 13:38 | 47.40217 | 8.59604 | 10221 ft | 287 kts | 88° |
| 2026-05-01 13:38 | 47.40339 | 8.62599 | 10694 ft | 302 kts | 88° |
| 2026-05-01 13:39 | 47.40430 | 8.65773 | 10905 ft | 325 kts | 89° |
| 2026-05-01 13:39 | 47.40502 | 8.69177 | 11331 ft | 337 kts | 89° |
| 2026-05-01 13:39 | 47.40561 | 8.72661 | 11993 ft | 342 kts | 89° |
| 2026-05-01 13:39 | 47.40614 | 8.76179 | 12712 ft | 345 kts | 89° |
| 2026-05-01 13:40 | 47.40665 | 8.79722 | 13445 ft | 347 kts | 89° |
| 2026-05-01 13:40 | 47.40717 | 8.83297 | 14160 ft | 350 kts | 89° |
| 2026-05-01 13:40 | 47.40773 | 8.86896 | 14784 ft | 352 kts | 89° |
| 2026-05-01 13:40 | 47.40830 | 8.90525 | 15388 ft | 355 kts | 89° |
| 2026-05-01 13:41 | 47.40886 | 8.94193 | 15980 ft | 359 kts | 89° |
| 2026-05-01 13:41 | 47.40942 | 8.97894 | 16570 ft | 362 kts | 88° |
| 2026-05-01 13:41 | 47.40998 | 9.01632 | 17167 ft | 366 kts | 88° |
| 2026-05-01 13:41 | 47.41052 | 9.05405 | 17747 ft | 369 kts | 88° |
| 2026-05-01 13:42 | 47.41104 | 9.09209 | 18348 ft | 373 kts | 89° |
| 2026-05-01 13:42 | 47.40799 | 9.13021 | 18861 ft | 377 kts | 105° |
| 2026-05-01 13:42 | 47.39712 | 9.16557 | 19344 ft | 383 kts | 123° |
| 2026-05-01 13:42 | 47.37919 | 9.19481 | 19852 ft | 389 kts | 140° |
| 2026-05-01 13:43 | 47.35569 | 9.21488 | 20349 ft | 396 kts | 158° |
| 2026-05-01 13:43 | 47.32880 | 9.22460 | 20844 ft | 401 kts | 168° |
| 2026-05-01 13:43 | 47.30121 | 9.23198 | 21346 ft | 404 kts | 168° |
| 2026-05-01 13:43 | 47.27338 | 9.23930 | 21836 ft | 408 kts | 168° |
| 2026-05-01 13:44 | 47.24533 | 9.24665 | 22328 ft | 411 kts | 168° |
| 2026-05-01 13:44 | 47.21700 | 9.25408 | 22804 ft | 415 kts | 168° |
| 2026-05-01 13:44 | 47.18845 | 9.26159 | 23247 ft | 419 kts | 168° |
| 2026-05-01 13:44 | 47.15969 | 9.26915 | 23700 ft | 422 kts | 168° |
| 2026-05-01 13:45 | 47.13069 | 9.27676 | 24100 ft | 425 kts | 168° |
| 2026-05-01 13:45 | 47.10148 | 9.28443 | 24467 ft | 428 kts | 168° |
| 2026-05-01 13:45 | 47.07265 | 9.29534 | 24839 ft | 428 kts | 159° |
| 2026-05-01 13:45 | 47.04548 | 9.31310 | 25196 ft | 429 kts | 149° |
| 2026-05-01 13:46 | 47.02068 | 9.33729 | 25552 ft | 428 kts | 139° |
| 2026-05-01 13:46 | 46.99837 | 9.36623 | 25890 ft | 429 kts | 135° |
| 2026-05-01 13:46 | 46.98369 | 9.38576 | 26092 ft | 431 kts | 136° |
| 2026-05-01 13:46 | 46.95379 | 9.42525 | 26530 ft | 434 kts | 136° |
| 2026-05-01 13:47 | 46.93124 | 9.45486 | 26860 ft | 436 kts | 135° |
| 2026-05-01 13:47 | 46.91625 | 9.47453 | 27034 ft | 438 kts | 135° |
| 2026-05-01 13:47 | 46.89352 | 9.50435 | 27368 ft | 440 kts | 135° |
| 2026-05-01 13:47 | 46.87068 | 9.53428 | 27688 ft | 442 kts | 135° |
| 2026-05-01 13:48 | 46.84770 | 9.56437 | 28011 ft | 444 kts | 135° |
| 2026-05-01 13:48 | 46.81713 | 9.60435 | 28394 ft | 447 kts | 136° |
| 2026-05-01 13:48 | 46.79394 | 9.63461 | 28692 ft | 449 kts | 136° |
| 2026-05-01 13:48 | 46.77059 | 9.66502 | 28991 ft | 451 kts | 135° |
| 2026-05-01 13:49 | 46.75478 | 9.68561 | 29194 ft | 452 kts | 135° |
| 2026-05-01 13:49 | 46.73125 | 9.71625 | 29480 ft | 454 kts | 135° |
| 2026-05-01 13:49 | 46.70768 | 9.74690 | 29747 ft | 455 kts | 135° |
| 2026-05-01 13:49 | 46.68432 | 9.77721 | 30026 ft | 457 kts | 135° |
| 2026-05-01 13:50 | 46.66052 | 9.80813 | 30298 ft | 459 kts | 135° |
| 2026-05-01 13:50 | 46.63666 | 9.83913 | 30549 ft | 460 kts | 135° |
| 2026-05-01 13:50 | 46.61274 | 9.87013 | 30753 ft | 462 kts | 135° |
| 2026-05-01 13:50 | 46.58868 | 9.90125 | 30955 ft | 463 kts | 135° |
| 2026-05-01 13:51 | 46.56458 | 9.93234 | 31205 ft | 463 kts | 135° |
| 2026-05-01 13:51 | 46.54045 | 9.96341 | 31496 ft | 463 kts | 135° |
| 2026-05-01 13:51 | 46.51634 | 9.99440 | 31768 ft | 463 kts | 135° |
| 2026-05-01 13:51 | 46.49226 | 10.02530 | 32056 ft | 462 kts | 135° |
| 2026-05-01 13:52 | 46.46826 | 10.05628 | 32336 ft | 461 kts | 135° |
| 2026-05-01 13:52 | 46.44484 | 10.08797 | 32621 ft | 460 kts | 133° |
| 2026-05-01 13:52 | 46.42194 | 10.12022 | 32917 ft | 459 kts | 132° |
| 2026-05-01 13:52 | 46.39932 | 10.15279 | 33174 ft | 458 kts | 131° |
| 2026-05-01 13:53 | 46.37679 | 10.18534 | 33434 ft | 457 kts | 132° |
| 2026-05-01 13:53 | 46.33155 | 10.24985 | 33947 ft | 456 kts | 133° |
| 2026-05-01 13:53 | 46.30871 | 10.28179 | 34200 ft | 456 kts | 133° |
| 2026-05-01 13:54 | 46.28585 | 10.31357 | 34463 ft | 456 kts | 133° |
| 2026-05-01 13:54 | 46.26301 | 10.34526 | 34678 ft | 456 kts | 133° |
| 2026-05-01 13:54 | 46.24017 | 10.37701 | 34877 ft | 456 kts | 133° |
| 2026-05-01 13:54 | 46.21734 | 10.40877 | 35076 ft | 456 kts | 133° |
| 2026-05-01 13:55 | 46.19448 | 10.44055 | 35276 ft | 456 kts | 133° |
| 2026-05-01 13:55 | 46.17168 | 10.47220 | 35327 ft | 454 kts | 133° |
| 2026-05-01 13:55 | 46.12647 | 10.53480 | 35333 ft | 453 kts | 133° |
| 2026-05-01 13:56 | 46.08100 | 10.59759 | 35332 ft | 453 kts | 133° |
| 2026-05-01 13:56 | 46.03516 | 10.66075 | 35339 ft | 453 kts | 133° |
| 2026-05-01 13:57 | 45.98991 | 10.72296 | 35340 ft | 453 kts | 133° |
| 2026-05-01 13:57 | 45.94433 | 10.78552 | 35367 ft | 453 kts | 133° |
| 2026-05-01 13:58 | 45.89871 | 10.84803 | 35361 ft | 453 kts | 133° |
| 2026-05-01 13:58 | 45.85306 | 10.91034 | 35365 ft | 453 kts | 133° |
| 2026-05-01 13:59 | 45.80733 | 10.97250 | 35357 ft | 453 kts | 133° |
| 2026-05-01 13:59 | 45.76160 | 11.03474 | 35353 ft | 453 kts | 133° |
| 2026-05-01 14:00 | 45.71578 | 11.09688 | 35373 ft | 454 kts | 132° |
| 2026-05-01 14:00 | 45.66993 | 11.15883 | 35371 ft | 453 kts | 132° |
| 2026-05-01 14:01 | 45.62412 | 11.22071 | 35358 ft | 453 kts | 132° |
| 2026-05-01 14:01 | 45.57831 | 11.28249 | 35364 ft | 453 kts | 132° |
| 2026-05-01 14:02 | 45.53235 | 11.34417 | 35359 ft | 454 kts | 133° |
| 2026-05-01 14:02 | 45.48631 | 11.40579 | 35352 ft | 454 kts | 132° |
| 2026-05-01 14:03 | 45.44024 | 11.46743 | 35369 ft | 455 kts | 133° |
| 2026-05-01 14:03 | 45.39405 | 11.52894 | 35371 ft | 455 kts | 133° |
| 2026-05-01 14:04 | 45.34777 | 11.59044 | 35377 ft | 456 kts | 133° |
| 2026-05-01 14:04 | 45.30145 | 11.65196 | 35387 ft | 456 kts | 133° |
| 2026-05-01 14:05 | 45.25539 | 11.71303 | 35397 ft | 456 kts | 132° |
| 2026-05-01 14:05 | 45.20900 | 11.77444 | 35397 ft | 456 kts | 133° |
| 2026-05-01 14:06 | 45.16252 | 11.83563 | 35388 ft | 456 kts | 133° |
| 2026-05-01 14:06 | 45.11592 | 11.89682 | 35385 ft | 457 kts | 133° |
| 2026-05-01 14:07 | 45.06937 | 11.95801 | 35411 ft | 457 kts | 132° |
| 2026-05-01 14:08 | 44.99936 | 12.04947 | 35406 ft | 457 kts | 132° |
| 2026-05-01 14:08 | 44.95268 | 12.11035 | 35399 ft | 457 kts | 132° |
| 2026-05-01 14:09 | 44.90598 | 12.17114 | 35387 ft | 457 kts | 132° |
| 2026-05-01 14:09 | 44.85925 | 12.23181 | 35386 ft | 457 kts | 133° |
| 2026-05-01 14:10 | 44.81235 | 12.29236 | 35413 ft | 457 kts | 132° |
| 2026-05-01 14:10 | 44.76539 | 12.35272 | 35408 ft | 457 kts | 132° |
| 2026-05-01 14:11 | 44.71848 | 12.41310 | 35394 ft | 457 kts | 132° |
| 2026-05-01 14:11 | 44.64831 | 12.50318 | 35384 ft | 458 kts | 132° |
| 2026-05-01 14:12 | 44.60117 | 12.56337 | 35404 ft | 458 kts | 132° |
| 2026-05-01 14:12 | 44.55399 | 12.62353 | 35384 ft | 458 kts | 132° |
| 2026-05-01 14:13 | 44.51451 | 12.67389 | 35383 ft | 458 kts | 132° |
| 2026-05-01 14:13 | 44.45963 | 12.74365 | 35364 ft | 458 kts | 132° |
| 2026-05-01 14:14 | 44.41233 | 12.80360 | 35356 ft | 459 kts | 132° |
| 2026-05-01 14:14 | 44.36494 | 12.86347 | 35379 ft | 459 kts | 131° |
| 2026-05-01 14:15 | 44.31748 | 12.92326 | 35369 ft | 459 kts | 131° |
| 2026-05-01 14:15 | 44.27002 | 12.98297 | 35349 ft | 459 kts | 131° |
| 2026-05-01 14:16 | 44.22249 | 13.04255 | 35351 ft | 460 kts | 131° |
| 2026-05-01 14:16 | 44.17493 | 13.10213 | 35343 ft | 460 kts | 131° |
| 2026-05-01 14:17 | 44.12741 | 13.16170 | 35381 ft | 460 kts | 131° |
| 2026-05-01 14:17 | 44.07982 | 13.22109 | 35365 ft | 459 kts | 131° |
| 2026-05-01 14:18 | 44.03223 | 13.28023 | 35355 ft | 459 kts | 131° |
| 2026-05-01 14:18 | 43.99268 | 13.32936 | 35348 ft | 459 kts | 131° |
| 2026-05-01 14:19 | 43.93704 | 13.39826 | 35337 ft | 458 kts | 131° |
| 2026-05-01 14:19 | 43.88945 | 13.45711 | 35333 ft | 458 kts | 131° |
| 2026-05-01 14:20 | 43.81829 | 13.54478 | 35362 ft | 458 kts | 131° |
| 2026-05-01 14:21 | 43.77063 | 13.60334 | 35349 ft | 458 kts | 131° |
| 2026-05-01 14:21 | 43.72292 | 13.66179 | 35329 ft | 458 kts | 131° |
| 2026-05-01 14:22 | 43.65131 | 13.74942 | 35321 ft | 458 kts | 131° |
| 2026-05-01 14:22 | 43.60351 | 13.80772 | 35311 ft | 459 kts | 131° |
| 2026-05-01 14:23 | 43.55564 | 13.86593 | 35356 ft | 460 kts | 132° |
| 2026-05-01 14:23 | 43.50728 | 13.92388 | 35328 ft | 461 kts | 133° |
| 2026-05-01 14:24 | 43.45870 | 13.98171 | 35316 ft | 462 kts | 133° |
| 2026-05-01 14:24 | 43.41013 | 14.03947 | 35307 ft | 462 kts | 133° |
| 2026-05-01 14:25 | 43.36188 | 14.09691 | 35299 ft | 462 kts | 133° |
| 2026-05-01 14:25 | 43.31326 | 14.15462 | 35298 ft | 463 kts | 133° |
| 2026-05-01 14:26 | 43.24005 | 14.24127 | 35322 ft | 464 kts | 134° |
| 2026-05-01 14:27 | 43.19119 | 14.29896 | 35304 ft | 464 kts | 134° |
| 2026-05-01 14:27 | 43.14227 | 14.35667 | 35294 ft | 464 kts | 134° |
| 2026-05-01 14:28 | 43.06873 | 14.44313 | 35282 ft | 465 kts | 134° |
| 2026-05-01 14:28 | 43.01950 | 14.50082 | 35277 ft | 466 kts | 134° |
| 2026-05-01 14:29 | 42.97018 | 14.55852 | 35265 ft | 467 kts | 134° |
| 2026-05-01 14:30 | 42.87126 | 14.67380 | 35274 ft | 468 kts | 135° |
| 2026-05-01 14:31 | 42.79671 | 14.76022 | 35263 ft | 470 kts | 135° |
| 2026-05-01 14:31 | 42.74689 | 14.81787 | 35263 ft | 470 kts | 135° |
| 2026-05-01 14:32 | 42.69701 | 14.87550 | 35263 ft | 471 kts | 135° |
| 2026-05-01 14:32 | 42.64726 | 14.93339 | 35293 ft | 470 kts | 136° |
| 2026-05-01 14:33 | 42.59839 | 14.99240 | 35285 ft | 470 kts | 135° |
| 2026-05-01 14:33 | 42.54971 | 15.05165 | 35279 ft | 470 kts | 135° |
| 2026-05-01 14:34 | 42.50078 | 15.11067 | 35254 ft | 471 kts | 135° |
| 2026-05-01 14:34 | 42.45151 | 15.16947 | 35249 ft | 473 kts | 135° |
| 2026-05-01 14:35 | 42.40204 | 15.22819 | 35248 ft | 473 kts | 136° |
| 2026-05-01 14:35 | 42.35243 | 15.28697 | 35244 ft | 475 kts | 136° |
| 2026-05-01 14:36 | 42.30274 | 15.34597 | 35264 ft | 476 kts | 136° |
| 2026-05-01 14:36 | 42.25301 | 15.40493 | 35252 ft | 476 kts | 136° |
| 2026-05-01 14:37 | 42.20315 | 15.46382 | 35250 ft | 476 kts | 136° |
| 2026-05-01 14:37 | 42.15359 | 15.52228 | 35242 ft | 477 kts | 137° |
| 2026-05-01 14:38 | 42.10369 | 15.58112 | 34824 ft | 476 kts | 136° |
| 2026-05-01 14:38 | 42.07873 | 15.61045 | 34107 ft | 476 kts | 136° |
| 2026-05-01 14:38 | 42.05373 | 15.63971 | 33374 ft | 476 kts | 136° |
| 2026-05-01 14:38 | 42.02881 | 15.66881 | 32752 ft | 472 kts | 136° |
| 2026-05-01 14:39 | 42.00416 | 15.69760 | 32175 ft | 467 kts | 136° |
| 2026-05-01 14:39 | 41.97975 | 15.72608 | 31636 ft | 462 kts | 136° |
| 2026-05-01 14:39 | 41.96371 | 15.74475 | 31278 ft | 459 kts | 136° |
| 2026-05-01 14:39 | 41.93976 | 15.77269 | 30733 ft | 453 kts | 134° |
| 2026-05-01 14:40 | 41.91817 | 15.80291 | 30211 ft | 445 kts | 128° |
| 2026-05-01 14:40 | 41.89776 | 15.83389 | 29571 ft | 442 kts | 128° |
| 2026-05-01 14:40 | 41.87741 | 15.86458 | 28949 ft | 438 kts | 129° |
| 2026-05-01 14:40 | 41.85719 | 15.89495 | 28336 ft | 435 kts | 129° |
| 2026-05-01 14:41 | 41.83710 | 15.92500 | 27745 ft | 431 kts | 129° |
| 2026-05-01 14:41 | 41.81713 | 15.95480 | 27177 ft | 428 kts | 129° |
| 2026-05-01 14:41 | 41.79731 | 15.98438 | 26603 ft | 424 kts | 129° |
| 2026-05-01 14:41 | 41.77767 | 16.01368 | 26063 ft | 421 kts | 129° |
| 2026-05-01 14:42 | 41.75819 | 16.04272 | 25511 ft | 418 kts | 129° |
| 2026-05-01 14:42 | 41.73885 | 16.07157 | 24953 ft | 414 kts | 129° |
| 2026-05-01 14:42 | 41.71966 | 16.10014 | 24431 ft | 412 kts | 129° |
| 2026-05-01 14:42 | 41.70058 | 16.12855 | 23911 ft | 409 kts | 129° |
| 2026-05-01 14:43 | 41.68167 | 16.15671 | 23323 ft | 406 kts | 129° |
| 2026-05-01 14:43 | 41.66282 | 16.18477 | 22697 ft | 404 kts | 129° |
| 2026-05-01 14:43 | 41.64409 | 16.21264 | 22100 ft | 402 kts | 129° |
| 2026-05-01 14:43 | 41.62539 | 16.24041 | 21516 ft | 401 kts | 129° |
| 2026-05-01 14:44 | 41.60672 | 16.26805 | 20941 ft | 400 kts | 129° |
| 2026-05-01 14:44 | 41.56952 | 16.32293 | 19827 ft | 397 kts | 128° |
| 2026-05-01 14:44 | 41.55099 | 16.35024 | 19292 ft | 396 kts | 129° |
| 2026-05-01 14:45 | 41.53253 | 16.37742 | 18756 ft | 395 kts | 128° |
| 2026-05-01 14:45 | 41.48845 | 16.42057 | 17589 ft | 402 kts | 158° |
| 2026-05-01 14:45 | 41.46106 | 16.42801 | 17000 ft | 405 kts | 176° |
| 2026-05-01 14:46 | 41.43290 | 16.42799 | 16429 ft | 404 kts | 179° |
| 2026-05-01 14:46 | 41.37777 | 16.42661 | 15306 ft | 383 kts | 180° |
| 2026-05-01 14:46 | 41.35160 | 16.42581 | 14762 ft | 370 kts | 180° |
| 2026-05-01 14:47 | 41.32630 | 16.42491 | 14224 ft | 358 kts | 182° |
| 2026-05-01 14:47 | 41.30214 | 16.42084 | 13667 ft | 352 kts | 187° |
| 2026-05-01 14:47 | 41.27811 | 16.41609 | 13074 ft | 344 kts | 187° |
| 2026-05-01 14:48 | 41.23213 | 16.40349 | 11932 ft | 339 kts | 206° |
| 2026-05-01 14:48 | 41.21289 | 16.38568 | 11372 ft | 338 kts | 224° |
| 2026-05-01 14:48 | 41.17911 | 16.34258 | 10275 ft | 336 kts | 225° |
| 2026-05-01 14:49 | 41.13991 | 16.31446 | 9102 ft | 315 kts | 186° |
| 2026-05-01 14:49 | 41.09851 | 16.32296 | 7673 ft | 301 kts | 153° |
| 2026-05-01 14:50 | 41.06646 | 16.34134 | 6468 ft | 299 kts | 153° |
| 2026-05-01 14:50 | 41.03709 | 16.38155 | 5804 ft | 238 kts | 97° |
| 2026-05-01 14:51 | 41.03685 | 16.40224 | 5550 ft | 216 kts | 74° |
| 2026-05-01 14:51 | 41.04656 | 16.43811 | 5038 ft | 205 kts | 65° |
| 2026-05-01 14:52 | 41.05656 | 16.47295 | 4469 ft | 196 kts | 65° |
| 2026-05-01 14:52 | 41.06132 | 16.48957 | 4246 ft | 190 kts | 65° |
| 2026-05-01 14:52 | 41.07048 | 16.52158 | 3697 ft | 182 kts | 63° |
| 2026-05-01 14:53 | 41.07489 | 16.53702 | 3464 ft | 177 kts | 64° |
| 2026-05-01 14:53 | 41.07921 | 16.55212 | 3229 ft | 174 kts | 63° |
| 2026-05-01 14:53 | 41.08341 | 16.56686 | 2995 ft | 168 kts | 62° |
| 2026-05-01 14:53 | 41.08746 | 16.58107 | 2784 ft | 161 kts | 63° |
| 2026-05-01 14:54 | 41.09135 | 16.59471 | 2558 ft | 155 kts | 62° |
| 2026-05-01 14:54 | 41.09509 | 16.60782 | 2353 ft | 148 kts | 62° |
| 2026-05-01 14:54 | 41.09868 | 16.62044 | 2159 ft | 145 kts | 62° |
| 2026-05-01 14:54 | 41.10211 | 16.63249 | 1971 ft | 138 kts | 62° |
| 2026-05-01 14:55 | 41.10546 | 16.64425 | 1775 ft | 135 kts | 61° |
| 2026-05-01 14:55 | 41.10876 | 16.65581 | 1591 ft | 135 kts | 60° |
| 2026-05-01 14:55 | 41.11210 | 16.66751 | 1441 ft | 135 kts | 63° |
| 2026-05-01 14:55 | 41.11537 | 16.67910 | 1217 ft | 136 kts | 64° |
| 2026-05-01 14:56 | 41.11877 | 16.69103 | 1010 ft | 138 kts | 61° |
| 2026-05-01 14:56 | 41.12217 | 16.70302 | 826 ft | 137 kts | 63° |
| 2026-05-01 14:56 | 41.12558 | 16.71473 | 597 ft | 136 kts | 64° |
| 2026-05-01 14:56 | 41.12889 | 16.72661 | 378 ft | 138 kts | 65° |
| 2026-05-01 14:57 | 41.13226 | 16.73852 | 208 ft | 137 kts | 65° |
| 2026-05-01 14:57 | 41.13774 | 16.75779 | 138 ft | 75 kts | 69° |
| 2026-05-01 14:57 | 41.13921 | 16.76301 | 126 ft | 48 kts | 69° |
| 2026-05-01 14:58 | 41.13997 | 16.76578 | 122 ft | 17 kts | 71° |
| 2026-05-01 14:58 | 41.13970 | 16.76707 | 122 ft | 11 kts | 114° |
| 2026-05-01 14:58 | 41.13960 | 16.76736 | 123 ft | 10 kts | 113° |